sensor_id;sensor_type;location;lat;lon;timestamp;temperature;humidity
4429;DHT22;2227;47.810;8.810;2023-02-22T04:47:26;3.20;99.90
4429;DHT22;2227;47.810;8.810;2023-02-22T04:50:17;3.20;99.90
4429;DHT22;2227;47.810;8.810;2023-02-22T04:52:44;3.10;99.90
4429;DHT22;2227;47.810;8.810;2023-02-22T04:55:11;3.10;99.90
4429;DHT22;2227;47.810;8.810;2023-02-22T04:57:37;3.10;99.90
4429;DHT22;2227;47.810;8.810;2023-02-22T05:00:05;3.10;99.90
4429;DHT22;2227;47.810;8.810;2023-02-22T05:02:31;2.90;99.90
4429;DHT22;2227;47.810;8.810;2023-02-22T05:04:58;3.00;99.90
4429;DHT22;2227;47.810;8.810;2023-02-22T05:07:25;3.00;99.90
4429;DHT22;2227;47.810;8.810;2023-02-22T05:09:52;3.10;99.90
4429;DHT22;2227;47.810;8.810;2023-02-22T05:12:18;3.20;99.90
4429;DHT22;2227;47.810;8.810;2023-02-22T05:14:45;3.20;99.90
4429;DHT22;2227;47.810;8.810;2023-02-22T05:17:12;3.20;99.90
4429;DHT22;2227;47.810;8.810;2023-02-22T05:19:39;3.20;99.90
4429;DHT22;2227;47.810;8.810;2023-02-22T05:22:07;3.30;99.90
4429;DHT22;2227;47.810;8.810;2023-02-22T05:24:34;3.30;99.90
4429;DHT22;2227;47.810;8.810;2023-02-22T05:27:01;3.20;99.90
4429;DHT22;2227;47.810;8.810;2023-02-22T05:29:27;3.00;99.90
4429;DHT22;2227;47.810;8.810;2023-02-22T05:31:54;3.20;99.90
4429;DHT22;2227;47.810;8.810;2023-02-22T05:34:21;3.30;99.90
4429;DHT22;2227;47.810;8.810;2023-02-22T05:36:48;3.30;99.90
4429;DHT22;2227;47.810;8.810;2023-02-22T05:39:14;3.30;99.90
4429;DHT22;2227;47.810;8.810;2023-02-22T05:41:41;3.40;99.90
4429;DHT22;2227;47.810;8.810;2023-02-22T05:44:08;3.40;99.90
4429;DHT22;2227;47.810;8.810;2023-02-22T05:46:35;3.30;99.90
4429;DHT22;2227;47.810;8.810;2023-02-22T05:49:01;3.30;99.90
4429;DHT22;2227;47.810;8.810;2023-02-22T05:51:28;3.30;99.90
4429;DHT22;2227;47.810;8.810;2023-02-22T05:53:55;3.40;99.90
4429;DHT22;2227;47.810;8.810;2023-02-22T05:56:24;3.40;99.90
4429;DHT22;2227;47.810;8.810;2023-02-22T05:58:51;3.40;99.90
4429;DHT22;2227;47.810;8.810;2023-02-22T06:01:18;3.30;99.90
4429;DHT22;2227;47.810;8.810;2023-02-22T06:03:48;3.20;99.90
4429;DHT22;2227;47.810;8.810;2023-02-22T06:06:16;3.10;99.90
4429;DHT22;2227;47.810;8.810;2023-02-22T06:08:46;3.10;99.90
4429;DHT22;2227;47.810;8.810;2023-02-22T06:11:13;2.90;99.90
4429;DHT22;2227;47.810;8.810;2023-02-22T06:13:40;3.00;99.90
4429;DHT22;2227;47.810;8.810;2023-02-22T06:16:07;3.20;99.90
4429;DHT22;2227;47.810;8.810;2023-02-22T06:18:34;3.20;99.90
4429;DHT22;2227;47.810;8.810;2023-02-22T06:21:01;3.30;99.90
4429;DHT22;2227;47.810;8.810;2023-02-22T06:23:27;3.30;99.90
4429;DHT22;2227;47.810;8.810;2023-02-22T06:25:54;3.30;99.90
4429;DHT22;2227;47.810;8.810;2023-02-22T06:28:21;3.40;99.90
4429;DHT22;2227;47.810;8.810;2023-02-22T06:30:49;3.40;99.90
4429;DHT22;2227;47.810;8.810;2023-02-22T06:33:15;3.30;99.90
4429;DHT22;2227;47.810;8.810;2023-02-22T06:35:42;3.30;99.90
4429;DHT22;2227;47.810;8.810;2023-02-22T06:38:09;3.40;99.90
4429;DHT22;2227;47.810;8.810;2023-02-22T06:40:36;3.50;99.90
4429;DHT22;2227;47.810;8.810;2023-02-22T06:43:02;3.30;99.90
4429;DHT22;2227;47.810;8.810;2023-02-22T06:45:29;3.30;99.90
4429;DHT22;2227;47.810;8.810;2023-02-22T06:47:56;3.30;99.90
4429;DHT22;2227;47.810;8.810;2023-02-22T06:50:28;3.50;99.90
4429;DHT22;2227;47.810;8.810;2023-02-22T06:52:56;3.60;99.90
4429;DHT22;2227;47.810;8.810;2023-02-22T06:55:26;3.70;99.90
4429;DHT22;2227;47.810;8.810;2023-02-22T06:57:53;3.80;99.90
4429;DHT22;2227;47.810;8.810;2023-02-22T07:00:22;4.00;99.90
4429;DHT22;2227;47.810;8.810;2023-02-22T07:02:51;4.10;99.90
4429;DHT22;2227;47.810;8.810;2023-02-22T07:05:20;4.20;99.90
4429;DHT22;2227;47.810;8.810;2023-02-22T07:07:48;4.30;99.90
4429;DHT22;2227;47.810;8.810;2023-02-22T07:10:22;4.20;99.90
4429;DHT22;2227;47.810;8.810;2023-02-22T07:12:49;4.20;99.90
4429;DHT22;2227;47.810;8.810;2023-02-22T07:15:19;4.30;99.90
4429;DHT22;2227;47.810;8.810;2023-02-22T07:17:47;4.30;99.90
4429;DHT22;2227;47.810;8.810;2023-02-22T07:20:14;4.20;99.90
4429;DHT22;2227;47.810;8.810;2023-02-22T07:22:41;4.40;99.90
4429;DHT22;2227;47.810;8.810;2023-02-22T07:25:09;4.60;99.90
4429;DHT22;2227;47.810;8.810;2023-02-22T07:27:38;4.60;99.90
4429;DHT22;2227;47.810;8.810;2023-02-22T07:30:06;4.40;99.90
4429;DHT22;2227;47.810;8.810;2023-02-22T07:32:33;4.40;99.90
4429;DHT22;2227;47.810;8.810;2023-02-22T07:35:00;4.70;99.90
4429;DHT22;2227;47.810;8.810;2023-02-22T07:37:28;4.80;99.90
4429;DHT22;2227;47.810;8.810;2023-02-22T07:39:55;4.80;99.90
4429;DHT22;2227;47.810;8.810;2023-02-22T07:42:22;4.90;99.90
4429;DHT22;2227;47.810;8.810;2023-02-22T07:44:49;5.20;99.90
4429;DHT22;2227;47.810;8.810;2023-02-22T07:47:15;5.30;99.90
4429;DHT22;2227;47.810;8.810;2023-02-22T07:49:42;5.60;99.90
4429;DHT22;2227;47.810;8.810;2023-02-22T07:52:09;5.80;99.90
4429;DHT22;2227;47.810;8.810;2023-02-22T07:54:37;5.90;99.90
4429;DHT22;2227;47.810;8.810;2023-02-22T07:57:04;6.10;99.90
4429;DHT22;2227;47.810;8.810;2023-02-22T07:59:31;6.30;99.90
4429;DHT22;2227;47.810;8.810;2023-02-22T08:01:59;6.30;99.90
4429;DHT22;2227;47.810;8.810;2023-02-22T08:04:26;6.40;99.90
4429;DHT22;2227;47.810;8.810;2023-02-22T08:06:52;6.70;99.90
4429;DHT22;2227;47.810;8.810;2023-02-22T08:09:19;6.90;99.90
4429;DHT22;2227;47.810;8.810;2023-02-22T08:11:46;7.30;99.90
4429;DHT22;2227;47.810;8.810;2023-02-22T08:14:15;7.60;99.90
4429;DHT22;2227;47.810;8.810;2023-02-22T08:16:42;7.90;99.90
4429;DHT22;2227;47.810;8.810;2023-02-22T08:19:09;8.20;99.90
4429;DHT22;2227;47.810;8.810;2023-02-22T08:21:36;8.30;99.90
4429;DHT22;2227;47.810;8.810;2023-02-22T08:24:03;8.30;99.90
4429;DHT22;2227;47.810;8.810;2023-02-22T08:26:29;8.40;99.90
4429;DHT22;2227;47.810;8.810;2023-02-22T08:28:56;8.60;99.90
4429;DHT22;2227;47.810;8.810;2023-02-22T08:31:23;8.70;99.90
4429;DHT22;2227;47.810;8.810;2023-02-22T08:33:49;9.30;99.90
4429;DHT22;2227;47.810;8.810;2023-02-22T08:36:16;9.90;99.90
4429;DHT22;2227;47.810;8.810;2023-02-22T08:38:44;10.40;99.90
4429;DHT22;2227;47.810;8.810;2023-02-22T08:41:10;10.60;99.90
4429;DHT22;2227;47.810;8.810;2023-02-22T08:43:37;10.80;99.90
4429;DHT22;2227;47.810;8.810;2023-02-22T08:46:04;11.10;99.90
4429;DHT22;2227;47.810;8.810;2023-02-22T08:48:30;11.30;99.90
4429;DHT22;2227;47.810;8.810;2023-02-22T08:50:57;11.60;99.90
4429;DHT22;2227;47.810;8.810;2023-02-22T08:53:24;11.90;99.90
4429;DHT22;2227;47.810;8.810;2023-02-22T08:55:51;12.10;99.90
4429;DHT22;2227;47.810;8.810;2023-02-22T08:58:18;12.40;99.90
4429;DHT22;2227;47.810;8.810;2023-02-22T09:00:45;12.70;99.90
4429;DHT22;2227;47.810;8.810;2023-02-22T09:03:13;13.50;99.50
4429;DHT22;2227;47.810;8.810;2023-02-22T09:05:41;14.20;97.40
4429;DHT22;2227;47.810;8.810;2023-02-22T09:08:09;14.60;95.70
4429;DHT22;2227;47.810;8.810;2023-02-22T09:10:36;14.80;94.60
4429;DHT22;2227;47.810;8.810;2023-02-22T09:13:03;15.20;93.60
4429;DHT22;2227;47.810;8.810;2023-02-22T09:15:31;15.20;93.00
4429;DHT22;2227;47.810;8.810;2023-02-22T09:17:58;14.90;92.80
4429;DHT22;2227;47.810;8.810;2023-02-22T09:20:25;15.00;92.70
4429;DHT22;2227;47.810;8.810;2023-02-22T09:22:53;15.50;91.80
4429;DHT22;2227;47.810;8.810;2023-02-22T09:25:21;16.00;90.90
4429;DHT22;2227;47.810;8.810;2023-02-22T09:27:52;17.10;88.30
4429;DHT22;2227;47.810;8.810;2023-02-22T09:30:28;18.50;81.60
4429;DHT22;2227;47.810;8.810;2023-02-22T09:33:00;19.90;75.40
4429;DHT22;2227;47.810;8.810;2023-02-22T09:35:28;20.50;69.00
4429;DHT22;2227;47.810;8.810;2023-02-22T09:37:57;20.20;67.00
4429;DHT22;2227;47.810;8.810;2023-02-22T09:40:27;20.10;66.40
4429;DHT22;2227;47.810;8.810;2023-02-22T09:43:21;20.80;64.00
4429;DHT22;2227;47.810;8.810;2023-02-22T09:45:58;21.80;60.30
4429;DHT22;2227;47.810;8.810;2023-02-22T09:48:31;22.70;57.40
4429;DHT22;2227;47.810;8.810;2023-02-22T09:51:01;23.20;54.50
4429;DHT22;2227;47.810;8.810;2023-02-22T09:53:34;24.20;53.50
4429;DHT22;2227;47.810;8.810;2023-02-22T09:56:07;25.10;49.20
4429;DHT22;2227;47.810;8.810;2023-02-22T09:58:42;25.50;48.30
4429;DHT22;2227;47.810;8.810;2023-02-22T10:01:26;26.70;45.90
4429;DHT22;2227;47.810;8.810;2023-02-22T10:04:21;27.20;44.40
4429;DHT22;2227;47.810;8.810;2023-02-22T10:07:12;27.60;43.40
4429;DHT22;2227;47.810;8.810;2023-02-22T10:09:41;28.90;41.10
4429;DHT22;2227;47.810;8.810;2023-02-22T10:15:00;29.90;38.90
4429;DHT22;2227;47.810;8.810;2023-02-22T10:23:31;29.60;37.70
4429;DHT22;2227;47.810;8.810;2023-02-22T10:26:10;29.40;37.80
4429;DHT22;2227;47.810;8.810;2023-02-22T10:31:39;28.60;38.50
4429;DHT22;2227;47.810;8.810;2023-02-22T10:34:15;28.30;39.00
4429;DHT22;2227;47.810;8.810;2023-02-22T10:36:47;28.20;39.20
4429;DHT22;2227;47.810;8.810;2023-02-22T10:39:35;28.30;38.90
4429;DHT22;2227;47.810;8.810;2023-02-22T10:42:05;27.40;39.70
4429;DHT22;2227;47.810;8.810;2023-02-22T10:44:34;26.50;41.30
4429;DHT22;2227;47.810;8.810;2023-02-22T10:47:04;26.30;42.00
4429;DHT22;2227;47.810;8.810;2023-02-22T10:49:38;26.90;41.70
4429;DHT22;2227;47.810;8.810;2023-02-22T10:52:34;27.60;40.90
4429;DHT22;2227;47.810;8.810;2023-02-22T10:55:00;28.00;40.30
4429;DHT22;2227;47.810;8.810;2023-02-22T10:57:41;28.70;39.40
4429;DHT22;2227;47.810;8.810;2023-02-22T11:00:27;28.40;39.50
4429;DHT22;2227;47.810;8.810;2023-02-22T11:02:59;27.80;40.50
4429;DHT22;2227;47.810;8.810;2023-02-22T11:10:47;29.60;38.20
4429;DHT22;2227;47.810;8.810;2023-02-22T11:15:52;29.70;38.40
4429;DHT22;2227;47.810;8.810;2023-02-22T11:18:32;29.60;38.40
4429;DHT22;2227;47.810;8.810;2023-02-22T11:21:05;29.70;38.30
4429;DHT22;2227;47.810;8.810;2023-02-22T11:23:36;30.40;37.30
4429;DHT22;2227;47.810;8.810;2023-02-22T11:26:07;30.90;37.10
4429;DHT22;2227;47.810;8.810;2023-02-22T11:28:35;30.00;38.10
4429;DHT22;2227;47.810;8.810;2023-02-22T11:36:35;24.10;45.80
4429;DHT22;2227;47.810;8.810;2023-02-22T11:39:30;22.70;48.50
4429;DHT22;2227;47.810;8.810;2023-02-22T11:42:20;21.40;51.60
4429;DHT22;2227;47.810;8.810;2023-02-22T11:45:06;21.60;51.80
4429;DHT22;2227;47.810;8.810;2023-02-22T11:47:34;21.10;52.50
4429;DHT22;2227;47.810;8.810;2023-02-22T11:50:01;21.40;52.00
4429;DHT22;2227;47.810;8.810;2023-02-22T11:52:41;22.50;50.30
4429;DHT22;2227;47.810;8.810;2023-02-22T11:55:34;23.80;48.00
4429;DHT22;2227;47.810;8.810;2023-02-22T11:58:34;24.40;47.10
4429;DHT22;2227;47.810;8.810;2023-02-22T12:04:38;24.40;46.60
4429;DHT22;2227;47.810;8.810;2023-02-22T12:09:49;22.20;51.40
4429;DHT22;2227;47.810;8.810;2023-02-22T12:15:02;20.90;52.90
4429;DHT22;2227;47.810;8.810;2023-02-22T12:17:42;20.50;54.70
4429;DHT22;2227;47.810;8.810;2023-02-22T12:20:31;20.60;54.40
4429;DHT22;2227;47.810;8.810;2023-02-22T12:26:13;20.30;55.30
4429;DHT22;2227;47.810;8.810;2023-02-22T12:29:02;20.50;55.50
4429;DHT22;2227;47.810;8.810;2023-02-22T12:34:58;19.60;56.50
4429;DHT22;2227;47.810;8.810;2023-02-22T12:38:02;19.10;58.80
4429;DHT22;2227;47.810;8.810;2023-02-22T12:43:38;19.00;59.00
4429;DHT22;2227;47.810;8.810;2023-02-22T12:46:09;19.10;59.10
4429;DHT22;2227;47.810;8.810;2023-02-22T12:51:38;18.50;59.70
4429;DHT22;2227;47.810;8.810;2023-02-22T13:01:55;18.50;61.30
4429;DHT22;2227;47.810;8.810;2023-02-22T13:04:24;18.40;62.20
4429;DHT22;2227;47.810;8.810;2023-02-22T13:07:06;18.20;62.60
4429;DHT22;2227;47.810;8.810;2023-02-22T13:12:45;17.00;66.40
4429;DHT22;2227;47.810;8.810;2023-02-22T13:18:13;16.80;67.20
4429;DHT22;2227;47.810;8.810;2023-02-22T13:21:20;16.50;69.10
4429;DHT22;2227;47.810;8.810;2023-02-22T13:26:49;16.00;72.10
4429;DHT22;2227;47.810;8.810;2023-02-22T13:29:34;16.20;71.80
4429;DHT22;2227;47.810;8.810;2023-02-22T13:43:18;16.80;70.90
4429;DHT22;2227;47.810;8.810;2023-02-22T13:46:11;16.50;72.10
4429;DHT22;2227;47.810;8.810;2023-02-22T13:54:20;16.10;74.90
4429;DHT22;2227;47.810;8.810;2023-02-22T13:56:47;16.10;75.30
4429;DHT22;2227;47.810;8.810;2023-02-22T13:59:33;16.60;73.90
4429;DHT22;2227;47.810;8.810;2023-02-22T14:02:03;16.70;73.40
4429;DHT22;2227;47.810;8.810;2023-02-22T14:09:56;16.50;75.10
4429;DHT22;2227;47.810;8.810;2023-02-22T14:20:33;15.90;78.10
4429;DHT22;2227;47.810;8.810;2023-02-22T14:23:28;16.10;78.10
4429;DHT22;2227;47.810;8.810;2023-02-22T14:26:04;15.90;78.10
4429;DHT22;2227;47.810;8.810;2023-02-22T14:31:11;16.60;77.40
4429;DHT22;2227;47.810;8.810;2023-02-22T14:33:48;17.10;74.80
4429;DHT22;2227;47.810;8.810;2023-02-22T14:36:16;17.40;74.20
4429;DHT22;2227;47.810;8.810;2023-02-22T14:38:45;17.20;74.40
4429;DHT22;2227;47.810;8.810;2023-02-22T14:41:14;16.90;76.30
4429;DHT22;2227;47.810;8.810;2023-02-22T14:43:43;16.60;76.70
4429;DHT22;2227;47.810;8.810;2023-02-22T14:46:16;16.30;78.30
4429;DHT22;2227;47.810;8.810;2023-02-22T14:48:46;16.10;79.20
4429;DHT22;2227;47.810;8.810;2023-02-22T14:51:28;16.00;79.80
4429;DHT22;2227;47.810;8.810;2023-02-22T14:54:08;15.70;81.10
4429;DHT22;2227;47.810;8.810;2023-02-22T14:56:46;15.50;81.90
4429;DHT22;2227;47.810;8.810;2023-02-22T14:59:20;15.30;83.90
4429;DHT22;2227;47.810;8.810;2023-02-22T15:02:03;15.20;84.60
4429;DHT22;2227;47.810;8.810;2023-02-22T15:04:37;15.10;84.90
4429;DHT22;2227;47.810;8.810;2023-02-22T15:07:28;15.00;85.70
4429;DHT22;2227;47.810;8.810;2023-02-22T15:10:44;15.00;86.90
4429;DHT22;2227;47.810;8.810;2023-02-22T15:13:19;15.00;87.10
4429;DHT22;2227;47.810;8.810;2023-02-22T15:16:01;14.90;88.20
4429;DHT22;2227;47.810;8.810;2023-02-22T15:18:34;14.90;89.20
4429;DHT22;2227;47.810;8.810;2023-02-22T15:21:11;15.00;90.00
4429;DHT22;2227;47.810;8.810;2023-02-22T15:23:50;15.10;90.00
4429;DHT22;2227;47.810;8.810;2023-02-22T15:26:29;15.10;89.70
4429;DHT22;2227;47.810;8.810;2023-02-22T15:28:57;14.70;90.80
4429;DHT22;2227;47.810;8.810;2023-02-22T15:31:31;14.40;91.50
4429;DHT22;2227;47.810;8.810;2023-02-22T15:34:18;14.20;92.20
4429;DHT22;2227;47.810;8.810;2023-02-22T15:36:54;13.90;93.30
4429;DHT22;2227;47.810;8.810;2023-02-22T15:39:28;13.80;94.10
4429;DHT22;2227;47.810;8.810;2023-02-22T15:42:06;13.80;94.80
4429;DHT22;2227;47.810;8.810;2023-02-22T15:44:38;14.00;95.00
4429;DHT22;2227;47.810;8.810;2023-02-22T15:47:10;13.90;95.40
4429;DHT22;2227;47.810;8.810;2023-02-22T15:49:37;13.80;96.10
4429;DHT22;2227;47.810;8.810;2023-02-22T15:52:16;13.60;96.90
4429;DHT22;2227;47.810;8.810;2023-02-22T15:54:48;13.60;97.50
4429;DHT22;2227;47.810;8.810;2023-02-22T15:57:18;13.50;98.30
4429;DHT22;2227;47.810;8.810;2023-02-22T15:59:51;13.50;98.70
4429;DHT22;2227;47.810;8.810;2023-02-22T16:02:28;13.40;99.20
4429;DHT22;2227;47.810;8.810;2023-02-22T16:04:58;13.50;99.90
4429;DHT22;2227;47.810;8.810;2023-02-22T16:07:26;13.30;99.90
4429;DHT22;2227;47.810;8.810;2023-02-22T16:09:53;13.40;99.90
4429;DHT22;2227;47.810;8.810;2023-02-22T16:14:47;13.30;99.90
4429;DHT22;2227;47.810;8.810;2023-02-22T16:20:29;13.30;99.90
4429;DHT22;2227;47.810;8.810;2023-02-22T16:22:56;13.20;99.90
4429;DHT22;2227;47.810;8.810;2023-02-22T16:25:30;13.10;99.90
4429;DHT22;2227;47.810;8.810;2023-02-22T16:28:00;13.00;99.90
4429;DHT22;2227;47.810;8.810;2023-02-22T16:30:36;12.90;99.90
4429;DHT22;2227;47.810;8.810;2023-02-22T16:33:08;12.80;99.90
4429;DHT22;2227;47.810;8.810;2023-02-22T16:35:39;12.70;99.90
4429;DHT22;2227;47.810;8.810;2023-02-22T16:38:07;12.80;99.90
4429;DHT22;2227;47.810;8.810;2023-02-22T16:40:50;13.00;99.90
4429;DHT22;2227;47.810;8.810;2023-02-22T16:43:24;13.00;99.90
4429;DHT22;2227;47.810;8.810;2023-02-22T16:45:51;13.10;99.90
4429;DHT22;2227;47.810;8.810;2023-02-22T16:50:47;13.40;99.90
4429;DHT22;2227;47.810;8.810;2023-02-22T16:53:19;13.30;99.90
4429;DHT22;2227;47.810;8.810;2023-02-22T16:55:46;13.10;99.90
4429;DHT22;2227;47.810;8.810;2023-02-22T16:58:15;12.90;99.90
4429;DHT22;2227;47.810;8.810;2023-02-22T17:00:42;12.80;99.90
4429;DHT22;2227;47.810;8.810;2023-02-22T17:03:19;12.70;99.90
4429;DHT22;2227;47.810;8.810;2023-02-22T17:05:46;12.60;99.90
4429;DHT22;2227;47.810;8.810;2023-02-22T17:08:13;12.70;99.90
4429;DHT22;2227;47.810;8.810;2023-02-22T17:10:42;12.90;99.90
4429;DHT22;2227;47.810;8.810;2023-02-22T17:13:09;13.10;99.90
4429;DHT22;2227;47.810;8.810;2023-02-22T17:15:50;13.20;99.90
4429;DHT22;2227;47.810;8.810;2023-02-22T17:18:18;13.10;99.90
4429;DHT22;2227;47.810;8.810;2023-02-22T17:20:49;13.20;99.90
4429;DHT22;2227;47.810;8.810;2023-02-22T17:23:17;13.20;99.90
4429;DHT22;2227;47.810;8.810;2023-02-22T17:25:51;13.30;99.90
4429;DHT22;2227;47.810;8.810;2023-02-22T17:28:22;13.20;99.90
4429;DHT22;2227;47.810;8.810;2023-02-22T17:30:50;13.00;99.90
4429;DHT22;2227;47.810;8.810;2023-02-22T17:33:20;12.90;99.90
4429;DHT22;2227;47.810;8.810;2023-02-22T17:35:47;12.90;99.90
4429;DHT22;2227;47.810;8.810;2023-02-22T17:38:14;12.90;99.90
4429;DHT22;2227;47.810;8.810;2023-02-22T17:40:45;12.90;99.90
4429;DHT22;2227;47.810;8.810;2023-02-22T17:43:17;12.80;99.90
4429;DHT22;2227;47.810;8.810;2023-02-22T17:45:45;12.70;99.90
4429;DHT22;2227;47.810;8.810;2023-02-22T17:48:12;12.70;99.90
4429;DHT22;2227;47.810;8.810;2023-02-22T17:50:41;12.50;99.90
4429;DHT22;2227;47.810;8.810;2023-02-22T17:53:08;12.40;99.90
4429;DHT22;2227;47.810;8.810;2023-02-22T17:55:38;12.20;99.90
4429;DHT22;2227;47.810;8.810;2023-02-22T17:58:07;12.10;99.90
4429;DHT22;2227;47.810;8.810;2023-02-22T18:00:42;12.00;99.90
4429;DHT22;2227;47.810;8.810;2023-02-22T18:03:12;12.00;99.90
4429;DHT22;2227;47.810;8.810;2023-02-22T18:05:44;11.80;99.90
4429;DHT22;2227;47.810;8.810;2023-02-22T18:08:14;11.80;99.90
4429;DHT22;2227;47.810;8.810;2023-02-22T18:10:42;11.90;99.90
4429;DHT22;2227;47.810;8.810;2023-02-22T18:13:12;11.80;99.90
4429;DHT22;2227;47.810;8.810;2023-02-22T18:15:39;11.70;99.90
4429;DHT22;2227;47.810;8.810;2023-02-22T18:18:06;11.80;99.90
4429;DHT22;2227;47.810;8.810;2023-02-22T18:20:34;11.80;99.90
4429;DHT22;2227;47.810;8.810;2023-02-22T18:23:16;11.70;99.90
4429;DHT22;2227;47.810;8.810;2023-02-22T18:25:50;11.70;99.90
4429;DHT22;2227;47.810;8.810;2023-02-22T18:28:35;11.70;99.90
4429;DHT22;2227;47.810;8.810;2023-02-22T18:31:10;11.70;99.90
4429;DHT22;2227;47.810;8.810;2023-02-22T18:33:42;11.80;99.90
4429;DHT22;2227;47.810;8.810;2023-02-22T18:36:10;11.70;99.90
4429;DHT22;2227;47.810;8.810;2023-02-22T18:38:38;11.70;99.90
4429;DHT22;2227;47.810;8.810;2023-02-22T18:41:14;11.80;99.90
4429;DHT22;2227;47.810;8.810;2023-02-22T18:43:41;11.90;99.90
4429;DHT22;2227;47.810;8.810;2023-02-22T18:46:15;11.80;99.90
4429;DHT22;2227;47.810;8.810;2023-02-22T18:48:47;11.90;99.90
4429;DHT22;2227;47.810;8.810;2023-02-22T18:51:15;11.80;99.90
4429;DHT22;2227;47.810;8.810;2023-02-22T18:53:43;11.90;99.90
4429;DHT22;2227;47.810;8.810;2023-02-22T18:56:16;11.90;99.90
4429;DHT22;2227;47.810;8.810;2023-02-22T18:58:51;12.10;99.90
4429;DHT22;2227;47.810;8.810;2023-02-22T19:01:18;12.10;99.90
4429;DHT22;2227;47.810;8.810;2023-02-22T19:03:47;11.90;99.90
4429;DHT22;2227;47.810;8.810;2023-02-22T19:06:15;11.80;99.90
4429;DHT22;2227;47.810;8.810;2023-02-22T19:08:44;11.80;99.90
4429;DHT22;2227;47.810;8.810;2023-02-22T19:11:17;11.90;99.90
4429;DHT22;2227;47.810;8.810;2023-02-22T19:13:46;11.90;99.90
4429;DHT22;2227;47.810;8.810;2023-02-22T19:16:15;11.80;99.90
4429;DHT22;2227;47.810;8.810;2023-02-22T19:18:43;11.70;99.90
4429;DHT22;2227;47.810;8.810;2023-02-22T19:21:11;11.60;99.90
4429;DHT22;2227;47.810;8.810;2023-02-22T19:23:39;11.50;99.90
4429;DHT22;2227;47.810;8.810;2023-02-22T19:26:12;11.50;99.90
4429;DHT22;2227;47.810;8.810;2023-02-22T19:28:39;11.50;99.90
4429;DHT22;2227;47.810;8.810;2023-02-22T19:31:33;11.50;99.90
4429;DHT22;2227;47.810;8.810;2023-02-22T19:34:10;11.30;99.90
4429;DHT22;2227;47.810;8.810;2023-02-22T19:36:42;11.20;99.90
4429;DHT22;2227;47.810;8.810;2023-02-22T19:39:15;11.30;99.90
4429;DHT22;2227;47.810;8.810;2023-02-22T19:41:42;11.20;99.90
4429;DHT22;2227;47.810;8.810;2023-02-22T19:44:09;11.10;99.90
4429;DHT22;2227;47.810;8.810;2023-02-22T19:46:36;11.10;99.90
4429;DHT22;2227;47.810;8.810;2023-02-22T19:49:03;11.10;99.90
4429;DHT22;2227;47.810;8.810;2023-02-22T19:51:31;11.00;99.90
4429;DHT22;2227;47.810;8.810;2023-02-22T19:54:01;11.10;99.90
4429;DHT22;2227;47.810;8.810;2023-02-22T19:56:29;11.20;99.90
4429;DHT22;2227;47.810;8.810;2023-02-22T19:58:59;11.30;99.90
4429;DHT22;2227;47.810;8.810;2023-02-22T20:01:31;11.30;99.90
4429;DHT22;2227;47.810;8.810;2023-02-22T20:04:07;11.40;99.90
4429;DHT22;2227;47.810;8.810;2023-02-22T20:06:37;11.30;99.90
4429;DHT22;2227;47.810;8.810;2023-02-22T20:09:10;11.30;99.90
4429;DHT22;2227;47.810;8.810;2023-02-22T20:11:38;11.30;99.90
4429;DHT22;2227;47.810;8.810;2023-02-22T20:14:05;11.20;99.90
4429;DHT22;2227;47.810;8.810;2023-02-22T20:16:33;11.20;99.90
4429;DHT22;2227;47.810;8.810;2023-02-22T20:19:00;11.30;99.90
4429;DHT22;2227;47.810;8.810;2023-02-22T20:21:31;11.30;99.90
4429;DHT22;2227;47.810;8.810;2023-02-22T20:24:06;11.30;99.90
4429;DHT22;2227;47.810;8.810;2023-02-22T20:26:35;11.30;99.90
4429;DHT22;2227;47.810;8.810;2023-02-22T20:29:04;11.30;99.90
4429;DHT22;2227;47.810;8.810;2023-02-22T20:31:32;11.20;99.90
4429;DHT22;2227;47.810;8.810;2023-02-22T20:33:59;11.20;99.90
4429;DHT22;2227;47.810;8.810;2023-02-22T20:36:29;10.90;99.90
4429;DHT22;2227;47.810;8.810;2023-02-22T20:38:57;11.10;99.90
4429;DHT22;2227;47.810;8.810;2023-02-22T20:41:30;11.10;99.90
4429;DHT22;2227;47.810;8.810;2023-02-22T20:43:59;11.20;99.90
4429;DHT22;2227;47.810;8.810;2023-02-22T20:46:28;11.10;99.90
4429;DHT22;2227;47.810;8.810;2023-02-22T20:48:58;11.10;99.90
4429;DHT22;2227;47.810;8.810;2023-02-22T20:51:27;11.10;99.90
4429;DHT22;2227;47.810;8.810;2023-02-22T20:53:56;11.00;99.90
4429;DHT22;2227;47.810;8.810;2023-02-22T20:56:27;11.10;99.90
4429;DHT22;2227;47.810;8.810;2023-02-22T20:58:56;11.20;99.90
4429;DHT22;2227;47.810;8.810;2023-02-22T21:01:23;11.20;99.90
4429;DHT22;2227;47.810;8.810;2023-02-22T21:03:50;11.10;99.90
4429;DHT22;2227;47.810;8.810;2023-02-22T21:06:18;11.00;99.90
4429;DHT22;2227;47.810;8.810;2023-02-22T21:08:52;11.10;99.90
4429;DHT22;2227;47.810;8.810;2023-02-22T21:11:20;11.20;99.90
4429;DHT22;2227;47.810;8.810;2023-02-22T21:13:47;11.10;99.90
4429;DHT22;2227;47.810;8.810;2023-02-22T21:16:18;11.10;99.90
4429;DHT22;2227;47.810;8.810;2023-02-22T21:18:45;11.00;99.90
4429;DHT22;2227;47.810;8.810;2023-02-22T21:21:11;11.10;99.90
4429;DHT22;2227;47.810;8.810;2023-02-22T21:23:39;11.20;99.90
4429;DHT22;2227;47.810;8.810;2023-02-22T21:26:12;11.10;99.90
4429;DHT22;2227;47.810;8.810;2023-02-22T21:28:40;11.10;99.90
4429;DHT22;2227;47.810;8.810;2023-02-22T21:31:18;11.10;99.90
4429;DHT22;2227;47.810;8.810;2023-02-22T21:33:48;11.00;99.90
4429;DHT22;2227;47.810;8.810;2023-02-22T21:36:16;11.00;99.90
4429;DHT22;2227;47.810;8.810;2023-02-22T21:38:45;11.00;99.90
4429;DHT22;2227;47.810;8.810;2023-02-22T21:41:13;11.00;99.90
4429;DHT22;2227;47.810;8.810;2023-02-22T21:43:41;11.10;99.90
4429;DHT22;2227;47.810;8.810;2023-02-22T21:46:09;11.10;99.90
4429;DHT22;2227;47.810;8.810;2023-02-22T21:48:41;11.20;99.90
4429;DHT22;2227;47.810;8.810;2023-02-22T21:51:17;10.90;99.90
4429;DHT22;2227;47.810;8.810;2023-02-22T21:53:49;10.90;99.90
4429;DHT22;2227;47.810;8.810;2023-02-22T21:56:20;10.90;99.90
4429;DHT22;2227;47.810;8.810;2023-02-22T21:58:54;11.00;99.90
4429;DHT22;2227;47.810;8.810;2023-02-22T22:01:29;11.00;99.90
4429;DHT22;2227;47.810;8.810;2023-02-22T22:03:57;11.10;99.90
4429;DHT22;2227;47.810;8.810;2023-02-22T22:06:26;11.00;99.90
4429;DHT22;2227;47.810;8.810;2023-02-22T22:08:54;10.90;99.90
4429;DHT22;2227;47.810;8.810;2023-02-22T22:11:22;10.80;99.90
4429;DHT22;2227;47.810;8.810;2023-02-22T22:13:52;10.70;99.90
4429;DHT22;2227;47.810;8.810;2023-02-22T22:16:23;10.70;99.90
4429;DHT22;2227;47.810;8.810;2023-02-22T22:18:53;10.70;99.90
4429;DHT22;2227;47.810;8.810;2023-02-22T22:21:22;10.70;99.90
4429;DHT22;2227;47.810;8.810;2023-02-22T22:23:51;10.50;99.90
4429;DHT22;2227;47.810;8.810;2023-02-22T22:26:23;10.50;99.90
4429;DHT22;2227;47.810;8.810;2023-02-22T22:28:52;10.50;99.90
4429;DHT22;2227;47.810;8.810;2023-02-22T22:31:20;10.50;99.90
4429;DHT22;2227;47.810;8.810;2023-02-22T22:33:49;10.60;99.90
4429;DHT22;2227;47.810;8.810;2023-02-22T22:36:17;10.70;99.90
4429;DHT22;2227;47.810;8.810;2023-02-22T22:38:44;10.60;99.90
4429;DHT22;2227;47.810;8.810;2023-02-22T22:41:16;10.50;99.90
4429;DHT22;2227;47.810;8.810;2023-02-22T22:43:45;10.40;99.90
4429;DHT22;2227;47.810;8.810;2023-02-22T22:46:16;10.40;99.90
4429;DHT22;2227;47.810;8.810;2023-02-22T22:48:44;10.40;99.90
4429;DHT22;2227;47.810;8.810;2023-02-22T22:51:15;10.50;99.90
4429;DHT22;2227;47.810;8.810;2023-02-22T22:53:45;10.50;99.90
4429;DHT22;2227;47.810;8.810;2023-02-22T22:56:15;10.50;99.90
4429;DHT22;2227;47.810;8.810;2023-02-22T22:58:48;10.50;99.90
4429;DHT22;2227;47.810;8.810;2023-02-22T23:01:16;10.60;99.90